createdAt,value
2022-08-17T00:00:02.235Z,22.05
2022-08-17T00:01:02.726Z,22.05
2022-08-17T00:02:05.812Z,22.05
2022-08-17T00:03:03.184Z,22.05
2022-08-17T00:04:02.172Z,22.06
2022-08-17T00:05:02.164Z,22.05
2022-08-17T00:06:02.165Z,22.05
2022-08-17T00:07:02.155Z,22.06
2022-08-17T00:08:02.157Z,22.04
2022-08-17T00:09:02.115Z,22.04
2022-08-17T00:10:02.099Z,22.02
2022-08-17T00:11:02.096Z,22.02
2022-08-17T00:12:41.357Z,22.02
2022-08-17T00:13:03.088Z,22.01
2022-08-17T00:14:02.057Z,21.98
2022-08-17T00:15:02.064Z,21.98
2022-08-17T00:16:02.029Z,21.96
2022-08-17T00:17:02.066Z,21.93
2022-08-17T00:18:02.019Z,21.90
2022-08-17T00:19:08.362Z,21.89
2022-08-17T00:20:02.997Z,21.86
2022-08-17T00:21:01.986Z,21.83
2022-08-17T00:22:29.498Z,21.85
2022-08-17T00:23:02.999Z,21.83
2022-08-17T00:24:01.980Z,21.82
2022-08-17T00:25:01.941Z,21.81
2022-08-17T00:26:01.945Z,21.79
2022-08-17T00:27:01.931Z,21.77
2022-08-17T00:28:01.900Z,21.75
2022-08-17T00:29:01.922Z,21.77
2022-08-17T00:30:01.883Z,21.74
2022-08-17T00:31:01.882Z,21.73
2022-08-17T00:32:01.876Z,21.68
2022-08-17T00:33:15.192Z,21.68
2022-08-17T00:34:02.847Z,21.68
2022-08-17T00:35:01.850Z,21.67
2022-08-17T00:36:01.823Z,21.66
2022-08-17T00:37:01.911Z,21.61
2022-08-17T00:38:01.806Z,21.61
2022-08-17T00:39:01.793Z,21.59
2022-08-17T00:40:01.874Z,21.58
2022-08-17T00:41:01.774Z,21.55
2022-08-17T00:42:01.785Z,21.55
2022-08-17T00:43:01.745Z,21.51
2022-08-17T00:44:01.736Z,21.48
2022-08-17T00:45:01.743Z,21.45
2022-08-17T00:46:01.707Z,21.38
2022-08-17T00:47:01.714Z,21.37
2022-08-17T00:48:01.687Z,21.37
2022-08-17T00:49:01.687Z,21.37
2022-08-17T00:50:01.667Z,21.36
2022-08-17T00:51:01.698Z,21.34
2022-08-17T00:52:01.658Z,21.33
2022-08-17T00:53:01.644Z,21.30
2022-08-17T00:54:01.619Z,21.30
2022-08-17T00:55:01.631Z,21.31
2022-08-17T00:56:01.599Z,21.30
2022-08-17T00:57:01.610Z,21.28
2022-08-17T00:58:01.579Z,21.22
2022-08-17T00:59:01.571Z,21.18
2022-08-17T01:00:03.113Z,21.16
2022-08-17T01:01:01.618Z,21.16
2022-08-17T01:02:01.543Z,21.13
2022-08-17T01:03:01.550Z,21.12
2022-08-17T01:04:01.523Z,21.11
2022-08-17T01:05:01.526Z,21.08
2022-08-17T01:06:01.520Z,21.05
2022-08-17T01:07:01.482Z,21.01
2022-08-17T01:08:01.492Z,21.01
2022-08-17T01:09:01.483Z,21.01
2022-08-17T01:10:01.466Z,21.00
2022-08-17T01:11:01.960Z,21.00
2022-08-17T01:12:01.437Z,21.00
2022-08-17T01:13:01.436Z,21.00
2022-08-17T01:14:01.441Z,21.00
2022-08-17T01:15:01.424Z,20.97
2022-08-17T01:16:01.384Z,20.97
2022-08-17T01:17:01.392Z,20.97
2022-08-17T01:18:01.385Z,21.01
2022-08-17T01:19:01.355Z,21.00
2022-08-17T01:20:01.355Z,20.96
2022-08-17T01:21:01.354Z,20.94
2022-08-17T01:22:01.316Z,20.93
2022-08-17T01:23:01.329Z,20.93
2022-08-17T01:24:01.309Z,20.91
2022-08-17T01:25:01.316Z,20.90
2022-08-17T01:26:01.287Z,20.90
2022-08-17T01:27:01.278Z,20.90
2022-08-17T01:28:01.259Z,20.88
2022-08-17T01:29:01.289Z,20.87
2022-08-17T01:30:01.248Z,20.85
2022-08-17T01:31:01.249Z,20.82
2022-08-17T01:32:01.218Z,20.76
2022-08-17T01:33:01.248Z,20.72
2022-08-17T01:34:01.913Z,20.64
2022-08-17T01:35:01.190Z,20.57
2022-08-17T01:36:01.172Z,20.57
2022-08-17T01:37:01.200Z,20.58
2022-08-17T01:38:01.160Z,20.56
2022-08-17T01:39:01.151Z,20.54
2022-08-17T01:40:01.164Z,20.56
2022-08-17T01:41:01.131Z,20.54
2022-08-17T01:42:01.152Z,20.53
2022-08-17T01:43:01.104Z,20.54
2022-08-17T01:44:01.102Z,20.53
2022-08-17T01:45:01.122Z,20.51
2022-08-17T01:46:02.980Z,20.51
2022-08-17T01:47:01.062Z,20.53
2022-08-17T01:48:01.076Z,20.51
2022-08-17T01:49:01.043Z,20.50
2022-08-17T01:50:01.045Z,20.46
2022-08-17T01:51:01.026Z,20.46
2022-08-17T01:52:01.026Z,20.48
2022-08-17T01:53:01.013Z,20.46
2022-08-17T01:54:00.985Z,20.46
2022-08-17T01:55:00.976Z,20.46
2022-08-17T01:56:00.958Z,20.44
2022-08-17T01:57:00.980Z,20.44
2022-08-17T01:58:00.936Z,20.42
2022-08-17T01:59:00.945Z,20.42
2022-08-17T02:00:00.932Z,20.41
2022-08-17T02:01:01.656Z,20.40
2022-08-17T02:02:00.928Z,20.40
2022-08-17T02:03:00.897Z,20.38
2022-08-17T02:04:01.906Z,20.40
2022-08-17T02:05:00.890Z,20.35
2022-08-17T02:06:00.868Z,20.35
2022-08-17T02:07:00.866Z,20.35
2022-08-17T02:08:00.972Z,20.34
2022-08-17T02:09:02.340Z,20.31
2022-08-17T02:10:00.819Z,20.27
2022-08-17T02:11:00.800Z,20.23
2022-08-17T02:12:38.124Z,20.20
2022-08-17T02:13:01.791Z,20.17
2022-08-17T02:14:03.002Z,20.17
2022-08-17T02:15:00.781Z,20.17
2022-08-17T02:16:00.751Z,20.17
2022-08-17T02:17:00.759Z,20.16
2022-08-17T02:18:00.721Z,20.17
2022-08-17T02:19:00.731Z,20.17
2022-08-17T02:20:00.709Z,20.19
2022-08-17T02:21:00.722Z,20.17
2022-08-17T02:22:00.733Z,20.17
2022-08-17T02:23:00.682Z,20.17
2022-08-17T02:24:00.655Z,20.19
2022-08-17T02:25:02.304Z,20.17
2022-08-17T02:26:00.655Z,20.16
2022-08-17T02:27:00.694Z,20.13
2022-08-17T02:28:00.615Z,20.12
2022-08-17T02:29:00.611Z,20.10
2022-08-17T02:30:00.618Z,20.10
2022-08-17T02:31:03.158Z,20.08
2022-08-17T02:32:00.593Z,20.08
2022-08-17T02:33:00.595Z,20.07
2022-08-17T02:34:04.462Z,20.08
2022-08-17T02:35:00.557Z,20.07
2022-08-17T02:36:00.564Z,20.04
2022-08-17T02:37:00.525Z,20.04
2022-08-17T02:38:00.528Z,20.05
2022-08-17T02:39:00.511Z,20.04
2022-08-17T02:40:00.578Z,20.05
2022-08-17T02:41:00.477Z,20.02
2022-08-17T02:42:00.479Z,20.02
2022-08-17T02:43:00.469Z,20.01
2022-08-17T02:44:00.488Z,20.00
2022-08-17T02:45:00.450Z,19.97
2022-08-17T02:46:00.431Z,19.97
2022-08-17T02:47:00.410Z,19.98
2022-08-17T02:48:00.410Z,19.98
2022-08-17T02:49:00.419Z,20.00
2022-08-17T02:50:00.438Z,19.98
2022-08-17T02:51:00.382Z,19.98
2022-08-17T02:52:00.381Z,19.97
2022-08-17T02:53:02.202Z,19.97
2022-08-17T02:54:35.795Z,19.97
2022-08-17T02:55:01.332Z,19.97
2022-08-17T02:56:00.322Z,19.98
2022-08-17T02:57:00.302Z,19.98
2022-08-17T02:58:00.327Z,19.98
2022-08-17T02:59:00.313Z,19.97
2022-08-17T03:00:00.265Z,19.98
2022-08-17T03:01:00.354Z,20.00
2022-08-17T03:02:00.312Z,20.01
2022-08-17T03:03:00.234Z,20.01
2022-08-17T03:04:00.232Z,20.02
2022-08-17T03:05:00.244Z,20.02
2022-08-17T03:06:00.204Z,20.04
2022-08-17T03:07:00.193Z,20.02
2022-08-17T03:08:00.195Z,20.04
2022-08-17T03:09:00.175Z,20.02
2022-08-17T03:10:00.200Z,20.02
2022-08-17T03:11:00.176Z,20.01
2022-08-17T03:12:00.166Z,20.00
2022-08-17T03:13:00.126Z,20.00
2022-08-17T03:14:00.109Z,19.98
2022-08-17T03:15:00.120Z,20.01
2022-08-17T03:16:00.127Z,20.00
2022-08-17T03:17:00.129Z,20.00
2022-08-17T03:18:00.085Z,20.00
2022-08-17T03:19:00.078Z,20.01
2022-08-17T03:20:00.084Z,20.01
2022-08-17T03:21:00.047Z,20.00
2022-08-17T03:22:00.062Z,19.98
2022-08-17T03:23:02.009Z,19.98
2022-08-17T03:24:00.020Z,19.98
2022-08-17T03:25:00.018Z,19.97
2022-08-17T03:25:59.991Z,19.97
2022-08-17T03:27:00.011Z,19.97
2022-08-17T03:27:59.962Z,20.00
2022-08-17T03:28:59.951Z,20.00
2022-08-17T03:29:59.954Z,20.01
2022-08-17T03:31:00.006Z,20.01
2022-08-17T03:31:59.930Z,20.01
2022-08-17T03:32:59.913Z,20.01
2022-08-17T03:33:59.928Z,19.98
2022-08-17T03:34:59.904Z,19.95
2022-08-17T03:35:59.879Z,19.92
2022-08-17T03:36:59.912Z,19.87
2022-08-17T03:38:00.442Z,19.86
2022-08-17T03:38:59.865Z,19.83
2022-08-17T03:39:59.916Z,19.83
2022-08-17T03:41:00.039Z,19.83
2022-08-17T03:41:59.845Z,19.82
2022-08-17T03:42:59.835Z,19.79
2022-08-17T03:43:59.837Z,19.78
2022-08-17T03:44:59.802Z,19.78
2022-08-17T03:45:59.777Z,19.78
2022-08-17T03:46:59.777Z,19.78
2022-08-17T03:47:59.757Z,19.76
2022-08-17T03:48:59.767Z,19.78
2022-08-17T03:49:59.719Z,19.76
2022-08-17T03:50:59.738Z,19.78
2022-08-17T03:51:59.708Z,19.78
2022-08-17T03:52:59.892Z,19.78
2022-08-17T03:53:59.698Z,19.76
2022-08-17T03:54:59.679Z,19.76
2022-08-17T03:55:59.660Z,19.75
2022-08-17T03:56:59.679Z,19.71
2022-08-17T03:57:59.649Z,19.71
2022-08-17T03:58:59.637Z,19.70
2022-08-17T03:59:59.653Z,19.68
2022-08-17T04:00:59.655Z,19.68
2022-08-17T04:01:59.639Z,19.67
2022-08-17T04:02:59.588Z,19.67
2022-08-17T04:03:59.591Z,19.67
2022-08-17T04:04:59.607Z,19.67
2022-08-17T04:05:59.564Z,19.67
2022-08-17T04:06:59.552Z,19.62
2022-08-17T04:07:59.540Z,19.60
2022-08-17T04:08:59.522Z,19.57
2022-08-17T04:09:59.606Z,19.57
2022-08-17T04:10:59.513Z,19.55
2022-08-17T04:12:00.302Z,19.55
2022-08-17T04:13:02.485Z,19.52
2022-08-17T04:13:59.462Z,19.50
2022-08-17T04:14:59.471Z,19.50
2022-08-17T04:15:59.448Z,19.49
2022-08-17T04:16:59.435Z,19.47
2022-08-17T04:17:59.455Z,19.46
2022-08-17T04:18:59.434Z,19.46
2022-08-17T04:19:59.416Z,19.46
2022-08-17T04:20:59.429Z,19.46
2022-08-17T04:21:59.385Z,19.47
2022-08-17T04:22:59.411Z,19.47
2022-08-17T04:23:59.354Z,19.49
2022-08-17T04:24:59.357Z,19.50
2022-08-17T04:25:59.358Z,19.50
2022-08-17T04:26:59.338Z,19.52
2022-08-17T04:27:59.341Z,19.49
2022-08-17T04:28:59.307Z,19.47
2022-08-17T04:29:59.321Z,19.50
2022-08-17T04:30:59.309Z,19.49
2022-08-17T04:31:59.278Z,19.49
2022-08-17T04:33:06.470Z,19.50
2022-08-17T04:34:00.247Z,19.49
2022-08-17T04:34:59.250Z,19.49
2022-08-17T04:35:59.251Z,19.46
2022-08-17T04:36:59.211Z,19.47
2022-08-17T04:37:59.212Z,19.47
2022-08-17T04:38:59.220Z,19.49
2022-08-17T04:40:03.401Z,19.49
2022-08-17T04:41:00.219Z,19.49
2022-08-17T04:41:59.189Z,19.47
2022-08-17T04:43:00.001Z,19.47
2022-08-17T04:43:59.163Z,19.47
2022-08-17T04:44:59.142Z,19.49
2022-08-17T04:45:59.205Z,19.47
2022-08-17T04:46:59.163Z,19.49
2022-08-17T04:47:59.100Z,19.49
2022-08-17T04:48:59.143Z,19.49
2022-08-17T04:49:59.124Z,19.50
2022-08-17T04:50:59.093Z,19.50
2022-08-17T04:52:04.441Z,19.50
2022-08-17T04:53:00.394Z,19.49
2022-08-17T04:53:59.057Z,19.49
2022-08-17T04:54:59.034Z,19.49
2022-08-17T04:55:59.062Z,19.50
2022-08-17T04:56:59.057Z,19.49
2022-08-17T04:57:59.332Z,19.47
2022-08-17T04:58:59.385Z,19.49
2022-08-17T04:59:59.085Z,19.49
2022-08-17T05:00:59.101Z,19.52
2022-08-17T05:01:59.102Z,19.55
2022-08-17T05:02:59.058Z,19.57
2022-08-17T05:03:59.049Z,19.60
2022-08-17T05:04:58.966Z,19.60
2022-08-17T05:05:59.618Z,19.58
2022-08-17T05:06:58.937Z,19.58
2022-08-17T05:08:00.047Z,19.61
2022-08-17T05:08:58.876Z,19.61
2022-08-17T05:09:59.889Z,19.62
2022-08-17T05:10:58.869Z,19.61
2022-08-17T05:11:59.560Z,19.64
2022-08-17T05:12:58.880Z,19.65
2022-08-17T05:13:59.965Z,19.64
2022-08-17T05:14:58.838Z,19.65
2022-08-17T05:15:59.841Z,19.67
2022-08-17T05:16:58.791Z,19.68
2022-08-17T05:17:59.548Z,19.68
2022-08-17T05:18:58.762Z,19.70
2022-08-17T05:19:58.945Z,19.71
2022-08-17T05:20:58.749Z,19.72
2022-08-17T05:21:58.834Z,19.76
2022-08-17T05:22:58.772Z,19.76
2022-08-17T05:23:58.713Z,19.76
2022-08-17T05:24:58.733Z,19.76
2022-08-17T05:25:58.713Z,19.76
2022-08-17T05:27:02.625Z,19.79
2022-08-17T05:27:59.676Z,19.80
2022-08-17T05:28:59.827Z,19.82
2022-08-17T05:29:58.662Z,19.83
2022-08-17T05:30:58.644Z,19.83
2022-08-17T05:31:58.634Z,19.85
2022-08-17T05:32:58.605Z,19.87
2022-08-17T05:33:58.617Z,19.89
2022-08-17T05:34:58.605Z,19.90
2022-08-17T05:35:58.627Z,19.92
2022-08-17T05:36:58.626Z,19.95
2022-08-17T05:37:58.559Z,19.97
2022-08-17T05:38:58.547Z,20.00
2022-08-17T05:39:58.590Z,20.02
2022-08-17T05:40:58.547Z,20.04
2022-08-17T05:41:58.658Z,20.05
2022-08-17T05:42:58.508Z,20.10
2022-08-17T05:43:58.524Z,20.13
2022-08-17T05:44:58.519Z,20.17
2022-08-17T05:45:58.488Z,20.20
2022-08-17T05:46:58.500Z,20.25
2022-08-17T05:47:58.447Z,20.27
2022-08-17T05:48:58.430Z,20.30
2022-08-17T05:49:58.450Z,20.35
2022-08-17T05:50:58.422Z,20.37
2022-08-17T05:51:58.468Z,20.41
2022-08-17T05:52:58.471Z,20.46
2022-08-17T05:53:58.391Z,20.48
2022-08-17T05:54:58.392Z,20.56
2022-08-17T05:55:58.415Z,20.60
2022-08-17T05:56:58.377Z,20.61
2022-08-17T05:57:58.441Z,20.68
2022-08-17T05:58:58.341Z,20.68
2022-08-17T05:59:58.406Z,20.69
2022-08-17T06:00:59.925Z,20.71
2022-08-17T06:01:58.337Z,20.72
2022-08-17T06:02:59.454Z,20.73
2022-08-17T06:03:58.292Z,20.73
2022-08-17T06:04:58.965Z,20.76
2022-08-17T06:05:58.356Z,20.76
2022-08-17T06:06:58.964Z,20.78
2022-08-17T06:07:58.273Z,20.78
2022-08-17T06:08:58.236Z,20.78
2022-08-17T06:09:58.325Z,20.79
2022-08-17T06:10:58.226Z,20.82
2022-08-17T06:12:00.161Z,20.81
2022-08-17T06:12:58.179Z,20.83
2022-08-17T06:13:58.197Z,20.83
2022-08-17T06:14:58.198Z,20.83
2022-08-17T06:15:58.178Z,20.87
2022-08-17T06:16:58.147Z,20.87
2022-08-17T06:17:58.151Z,20.90
2022-08-17T06:18:58.122Z,20.91
2022-08-17T06:19:58.111Z,20.94
2022-08-17T06:20:58.139Z,20.96
2022-08-17T06:21:58.159Z,20.96
2022-08-17T06:22:58.069Z,21.00
2022-08-17T06:23:58.080Z,21.00
2022-08-17T06:24:58.052Z,21.06
2022-08-17T06:25:58.077Z,21.09
2022-08-17T06:26:58.131Z,21.13
2022-08-17T06:27:58.021Z,21.18
2022-08-17T06:28:58.010Z,21.24
2022-08-17T06:29:58.009Z,21.28
2022-08-17T06:31:00.374Z,21.33
2022-08-17T06:31:58.142Z,21.36
2022-08-17T06:32:58.022Z,21.40
2022-08-17T06:33:58.010Z,21.46
2022-08-17T06:34:57.954Z,21.49
2022-08-17T06:35:57.962Z,21.51
2022-08-17T06:36:57.921Z,21.53
2022-08-17T06:37:57.935Z,21.58
2022-08-17T06:38:57.925Z,21.58
2022-08-17T06:39:57.970Z,21.64
2022-08-17T06:40:57.888Z,21.66
2022-08-17T06:41:57.937Z,21.68
2022-08-17T06:43:06.888Z,21.70
2022-08-17T06:43:58.872Z,21.73
2022-08-17T06:44:57.836Z,21.81
2022-08-17T06:45:57.877Z,21.85
2022-08-17T06:46:57.827Z,21.91
2022-08-17T06:47:57.837Z,21.96
2022-08-17T06:48:57.892Z,22.02
2022-08-17T06:49:57.851Z,22.08
2022-08-17T06:50:57.788Z,22.15
2022-08-17T06:51:57.800Z,22.20
2022-08-17T06:52:58.011Z,22.26
2022-08-17T06:53:57.779Z,22.31
2022-08-17T06:54:57.750Z,22.41
2022-08-17T06:55:57.746Z,22.46
2022-08-17T06:56:57.729Z,22.54
2022-08-17T06:57:57.698Z,22.63
2022-08-17T06:58:57.698Z,22.72
2022-08-17T06:59:57.731Z,22.79
2022-08-17T07:00:58.854Z,22.88
2022-08-17T07:01:57.680Z,22.96
2022-08-17T07:02:57.660Z,23.06
2022-08-17T07:03:57.700Z,23.12
2022-08-17T07:04:57.711Z,23.18
2022-08-17T07:05:57.631Z,23.23
2022-08-17T07:06:57.632Z,23.29
2022-08-17T07:07:57.611Z,23.35
2022-08-17T07:08:57.601Z,23.37
2022-08-17T07:09:57.603Z,23.39
2022-08-17T07:10:57.926Z,23.39
2022-08-17T07:11:57.581Z,23.42
2022-08-17T07:12:57.532Z,23.44
2022-08-17T07:13:57.532Z,23.44
2022-08-17T07:14:57.572Z,23.44
2022-08-17T07:15:57.655Z,23.47
2022-08-17T07:16:57.554Z,23.50
2022-08-17T07:17:57.519Z,23.53
2022-08-17T07:18:57.476Z,23.53
2022-08-17T07:19:57.516Z,23.54
2022-08-17T07:20:57.460Z,23.57
2022-08-17T07:21:57.546Z,23.59
2022-08-17T07:22:59.485Z,23.60
2022-08-17T07:23:57.472Z,23.67
2022-08-17T07:24:57.467Z,23.71
2022-08-17T07:25:57.445Z,23.74
2022-08-17T07:26:57.387Z,23.78
2022-08-17T07:27:57.387Z,23.81
2022-08-17T07:28:57.378Z,23.84
2022-08-17T07:29:57.399Z,23.87
2022-08-17T07:30:57.338Z,23.90
2022-08-17T07:31:57.340Z,23.93
2022-08-17T07:32:57.389Z,23.96
2022-08-17T07:33:57.312Z,23.99
2022-08-17T07:34:57.341Z,24.05
2022-08-17T07:35:57.310Z,24.06
2022-08-17T07:36:57.305Z,24.08
2022-08-17T07:37:57.282Z,24.09
2022-08-17T07:38:57.283Z,24.11
2022-08-17T07:39:59.669Z,24.12
2022-08-17T07:40:58.334Z,24.12
2022-08-17T07:41:58.977Z,24.15
2022-08-17T07:42:57.224Z,24.15
2022-08-17T07:43:57.224Z,24.15
2022-08-17T07:44:57.185Z,24.18
2022-08-17T07:45:57.224Z,24.19
2022-08-17T07:46:57.205Z,24.21
2022-08-17T07:47:57.155Z,24.24
2022-08-17T07:48:57.237Z,24.27
2022-08-17T07:49:57.186Z,24.31
2022-08-17T07:50:57.124Z,24.31
2022-08-17T07:51:57.156Z,24.33
2022-08-17T07:52:57.105Z,24.33
2022-08-17T07:54:13.227Z,24.36
2022-08-17T07:54:58.177Z,24.41
2022-08-17T07:55:57.096Z,24.45
2022-08-17T07:56:57.078Z,24.48
2022-08-17T07:57:57.058Z,24.51
2022-08-17T07:58:57.062Z,24.55
2022-08-17T07:59:57.059Z,24.61
2022-08-17T08:00:57.100Z,24.63
2022-08-17T08:01:57.487Z,24.67
2022-08-17T08:02:57.010Z,24.71
2022-08-17T08:03:57.010Z,24.77
2022-08-17T08:05:01.491Z,24.83
2022-08-17T08:05:58.021Z,24.86
2022-08-17T08:06:56.993Z,24.87
2022-08-17T08:07:56.951Z,24.90
2022-08-17T08:08:56.959Z,24.93
2022-08-17T08:09:56.933Z,24.99
2022-08-17T08:10:56.942Z,25.01
2022-08-17T08:11:56.970Z,25.02
2022-08-17T08:12:56.911Z,24.99
2022-08-17T08:13:57.020Z,24.99
2022-08-17T08:14:56.874Z,24.98
2022-08-17T08:15:56.887Z,24.97
2022-08-17T08:16:56.854Z,24.94
2022-08-17T08:17:56.832Z,24.94
2022-08-17T08:18:57.809Z,24.97
2022-08-17T08:19:56.842Z,24.99
2022-08-17T08:20:56.815Z,25.02
2022-08-17T08:21:56.815Z,25.05
2022-08-17T08:22:56.805Z,25.08
2022-08-17T08:23:56.779Z,25.12
2022-08-17T08:24:56.766Z,25.17
2022-08-17T08:25:56.777Z,25.23
2022-08-17T08:26:56.787Z,25.27
2022-08-17T08:27:56.768Z,25.30
2022-08-17T08:28:56.779Z,25.35
2022-08-17T08:29:56.757Z,25.38
2022-08-17T08:30:56.707Z,25.42
2022-08-17T08:31:56.698Z,25.45
2022-08-17T08:32:57.676Z,25.49
2022-08-17T08:33:56.692Z,25.54
2022-08-17T08:35:02.454Z,25.60
2022-08-17T08:35:57.640Z,25.64
2022-08-17T08:37:16.432Z,25.71
2022-08-17T08:37:57.621Z,25.76
2022-08-17T08:38:56.724Z,25.81
2022-08-17T08:39:56.694Z,25.83
2022-08-17T08:40:56.611Z,25.86
2022-08-17T08:41:56.652Z,25.89
2022-08-17T08:42:56.631Z,25.86
2022-08-17T08:43:56.573Z,25.89
2022-08-17T08:45:00.783Z,25.90
2022-08-17T08:45:57.643Z,25.91
2022-08-17T08:46:56.543Z,25.91
2022-08-17T08:47:56.513Z,25.93
2022-08-17T08:48:58.431Z,25.93
2022-08-17T08:50:04.054Z,25.96
2022-08-17T08:50:57.496Z,25.97
2022-08-17T08:51:56.484Z,25.97
2022-08-17T08:52:56.458Z,25.97
2022-08-17T08:53:56.594Z,25.98
2022-08-17T08:54:56.545Z,25.98
2022-08-17T08:55:56.507Z,25.97
2022-08-17T08:57:22.326Z,25.96
2022-08-17T08:57:57.407Z,25.97
2022-08-17T08:58:56.528Z,25.97
2022-08-17T08:59:57.723Z,25.97
2022-08-17T09:00:56.457Z,25.96
2022-08-17T09:01:56.429Z,25.96
2022-08-17T09:02:56.381Z,25.96
2022-08-17T09:04:11.830Z,25.96
2022-08-17T09:05:13.837Z,25.96
2022-08-17T09:05:57.351Z,25.96
2022-08-17T09:06:56.338Z,26.00
2022-08-17T09:07:57.472Z,26.00
2022-08-17T09:08:56.351Z,26.03
2022-08-17T09:09:59.384Z,26.08
2022-08-17T09:10:56.271Z,26.09
2022-08-17T09:12:01.140Z,26.12
2022-08-17T09:12:57.264Z,26.16
2022-08-17T09:13:56.361Z,26.16
2022-08-17T09:14:56.271Z,26.19
2022-08-17T09:15:56.235Z,26.19
2022-08-17T09:16:56.207Z,26.20
2022-08-17T09:18:21.436Z,26.23
2022-08-17T09:19:03.286Z,26.23
2022-08-17T09:19:57.190Z,26.23
2022-08-17T09:20:56.186Z,26.24
2022-08-17T09:21:56.166Z,26.23
2022-08-17T09:22:56.289Z,26.23
2022-08-17T09:23:56.123Z,26.23
2022-08-17T09:24:56.231Z,26.23
2022-08-17T09:25:56.137Z,26.24
2022-08-17T09:26:56.135Z,26.27
2022-08-17T09:27:56.098Z,26.27
2022-08-17T09:28:56.087Z,26.27
2022-08-17T09:29:56.151Z,26.28
2022-08-17T09:30:56.069Z,26.29
2022-08-17T09:31:56.149Z,26.31
2022-08-17T09:32:56.049Z,26.32
2022-08-17T09:33:56.029Z,26.34
2022-08-17T09:34:56.061Z,26.32
2022-08-17T09:35:56.041Z,26.32
2022-08-17T09:36:55.990Z,26.32
2022-08-17T09:37:56.004Z,26.29
2022-08-17T09:38:55.973Z,26.24
2022-08-17T09:39:56.450Z,26.20
2022-08-17T09:40:55.993Z,26.16
2022-08-17T09:41:55.964Z,26.12
2022-08-17T09:42:55.964Z,26.04
2022-08-17T09:43:55.917Z,26.01
2022-08-17T09:44:55.942Z,25.98
2022-08-17T09:45:55.961Z,25.96
2022-08-17T09:46:56.003Z,25.94
2022-08-17T09:47:55.874Z,25.91
2022-08-17T09:48:55.955Z,25.90
2022-08-17T09:49:55.865Z,25.89
2022-08-17T09:51:04.518Z,25.86
2022-08-17T09:51:56.834Z,25.83
2022-08-17T09:52:55.858Z,25.81
2022-08-17T09:54:05.172Z,25.81
2022-08-17T09:54:56.836Z,25.81
2022-08-17T09:55:55.878Z,25.81
2022-08-17T09:57:11.910Z,25.81
2022-08-17T09:57:56.798Z,25.78
2022-08-17T09:58:55.818Z,25.76
2022-08-17T09:59:55.759Z,25.75
2022-08-17T10:00:55.812Z,25.75
2022-08-17T10:01:55.816Z,25.71
2022-08-17T10:02:55.740Z,25.71
2022-08-17T10:03:55.714Z,25.71
2022-08-17T10:04:55.711Z,25.64
2022-08-17T10:05:56.997Z,25.61
2022-08-17T10:06:55.685Z,25.60
2022-08-17T10:07:55.751Z,25.57
2022-08-17T10:08:55.662Z,25.53
2022-08-17T10:09:55.644Z,25.45
2022-08-17T10:10:56.592Z,25.41
2022-08-17T10:11:55.654Z,25.30
2022-08-17T10:12:55.668Z,25.31
2022-08-17T10:13:55.593Z,25.31
2022-08-17T10:14:55.598Z,25.30
2022-08-17T10:15:55.591Z,25.26
2022-08-17T10:16:55.565Z,25.22
2022-08-17T10:17:55.605Z,25.19
2022-08-17T10:18:55.592Z,25.09
2022-08-17T10:19:55.534Z,25.08
2022-08-17T10:20:55.566Z,25.08
2022-08-17T10:22:01.404Z,25.05
2022-08-17T10:22:56.538Z,25.07
2022-08-17T10:23:55.526Z,25.11
2022-08-17T10:25:21.408Z,25.12
2022-08-17T10:25:56.530Z,25.14
2022-08-17T10:26:56.759Z,25.19
2022-08-17T10:27:55.569Z,25.20
2022-08-17T10:28:55.487Z,25.20
2022-08-17T10:29:55.454Z,25.20
2022-08-17T10:31:10.734Z,25.22
2022-08-17T10:31:56.407Z,25.22
2022-08-17T10:32:55.508Z,25.22
2022-08-17T10:33:55.419Z,25.23
2022-08-17T10:34:55.390Z,25.24
2022-08-17T10:35:57.188Z,25.24
2022-08-17T10:36:55.382Z,25.24
2022-08-17T10:37:55.370Z,25.26
2022-08-17T10:38:55.342Z,25.26
2022-08-17T10:39:55.360Z,25.24
2022-08-17T10:40:55.321Z,25.27
2022-08-17T10:41:55.321Z,25.29
2022-08-17T10:42:55.332Z,25.31
2022-08-17T10:43:57.891Z,25.31
2022-08-17T10:44:56.270Z,25.35
2022-08-17T10:46:17.105Z,25.35
2022-08-17T10:46:56.244Z,25.36
2022-08-17T10:47:57.337Z,25.39
2022-08-17T10:48:55.276Z,25.39
2022-08-17T10:49:55.204Z,25.41
2022-08-17T10:50:55.203Z,25.42
2022-08-17T10:51:55.196Z,25.42
2022-08-17T10:52:55.185Z,25.42
2022-08-17T10:53:55.191Z,25.39
2022-08-17T10:54:58.101Z,25.39
2022-08-17T10:55:55.158Z,25.41
2022-08-17T10:56:55.157Z,25.38
2022-08-17T10:57:55.170Z,25.41
2022-08-17T10:58:55.172Z,25.39
2022-08-17T10:59:55.124Z,25.39
2022-08-17T11:00:55.179Z,25.38
2022-08-17T11:01:55.099Z,25.35
2022-08-17T11:02:55.157Z,25.26
2022-08-17T11:03:55.116Z,25.22
2022-08-17T11:04:55.061Z,25.19
2022-08-17T11:05:55.049Z,25.17
2022-08-17T11:06:55.050Z,25.17
2022-08-17T11:07:55.057Z,25.14
2022-08-17T11:08:55.061Z,25.08
2022-08-17T11:09:55.028Z,25.04
2022-08-17T11:10:55.022Z,25.01
2022-08-17T11:11:54.982Z,24.97
2022-08-17T11:12:54.983Z,24.97
2022-08-17T11:13:54.982Z,24.87
2022-08-17T11:14:54.962Z,24.77
2022-08-17T11:15:58.876Z,24.63
2022-08-17T11:16:55.963Z,24.55
2022-08-17T11:17:54.913Z,24.46
2022-08-17T11:18:54.948Z,24.31
2022-08-17T11:19:54.944Z,24.21
2022-08-17T11:20:54.899Z,24.14
2022-08-17T11:21:54.925Z,24.12
2022-08-17T11:22:54.890Z,24.02
2022-08-17T11:23:54.875Z,24.05
2022-08-17T11:24:54.920Z,23.97
2022-08-17T11:25:54.828Z,23.99
2022-08-17T11:26:54.876Z,23.97
2022-08-17T11:27:54.817Z,23.99
2022-08-17T11:28:54.808Z,24.00
2022-08-17T11:29:59.536Z,24.00
2022-08-17T11:30:55.793Z,24.05
2022-08-17T11:31:54.776Z,24.11
2022-08-17T11:32:55.467Z,24.14
2022-08-17T11:33:54.738Z,24.14
2022-08-17T11:34:54.778Z,24.14
2022-08-17T11:35:54.788Z,24.14
2022-08-17T11:36:54.709Z,24.14
2022-08-17T11:37:54.725Z,24.12
2022-08-17T11:38:54.830Z,24.12
2022-08-17T11:39:54.708Z,24.08
2022-08-17T11:40:54.692Z,24.00
2022-08-17T11:41:54.671Z,23.99
2022-08-17T11:42:54.681Z,23.94
2022-08-17T11:43:54.736Z,23.93
2022-08-17T11:44:54.632Z,23.92
2022-08-17T11:45:54.900Z,23.89
2022-08-17T11:46:54.668Z,23.87
2022-08-17T11:48:23.765Z,23.82
2022-08-17T11:48:55.583Z,23.77
2022-08-17T11:49:54.599Z,23.78
2022-08-17T11:50:54.583Z,23.82
2022-08-17T11:51:54.581Z,23.90
2022-08-17T11:52:54.554Z,23.96
2022-08-17T11:54:14.682Z,24.02
2022-08-17T11:55:03.634Z,24.05
2022-08-17T11:55:55.785Z,24.05
2022-08-17T11:56:54.508Z,24.09
2022-08-17T11:57:54.507Z,24.11
2022-08-17T11:58:54.546Z,24.11
2022-08-17T11:59:54.494Z,24.15
2022-08-17T12:00:54.475Z,24.19
2022-08-17T12:01:54.438Z,24.21
2022-08-17T12:02:54.468Z,24.26
2022-08-17T12:03:55.801Z,24.31
2022-08-17T12:04:54.459Z,24.37
2022-08-17T12:05:54.413Z,24.44
2022-08-17T12:06:54.389Z,24.46
2022-08-17T12:07:54.429Z,24.49
2022-08-17T12:08:55.308Z,24.49
2022-08-17T12:09:54.369Z,24.51
2022-08-17T12:10:54.382Z,24.53
2022-08-17T12:12:11.140Z,24.59
2022-08-17T12:12:55.391Z,24.63
2022-08-17T12:13:54.431Z,24.67
2022-08-17T12:15:11.420Z,24.71
2022-08-17T12:15:55.321Z,24.79
2022-08-17T12:16:54.285Z,24.84
2022-08-17T12:17:54.657Z,24.93
2022-08-17T12:18:54.271Z,25.05
2022-08-17T12:19:54.333Z,25.16
2022-08-17T12:20:56.742Z,25.27
2022-08-17T12:21:54.254Z,25.38
2022-08-17T12:22:54.244Z,25.46
2022-08-17T12:23:54.223Z,25.54
2022-08-17T12:24:54.245Z,25.57
2022-08-17T12:25:54.195Z,25.56
2022-08-17T12:26:54.207Z,25.56
2022-08-17T12:28:06.839Z,25.59
2022-08-17T12:28:55.156Z,25.60
2022-08-17T12:29:54.137Z,25.64
2022-08-17T12:30:54.172Z,25.67
2022-08-17T12:31:54.137Z,25.74
2022-08-17T12:32:54.156Z,25.78
2022-08-17T12:33:54.120Z,25.85
2022-08-17T12:34:54.085Z,25.94
2022-08-17T12:35:59.212Z,26.08
2022-08-17T12:36:55.078Z,26.41
2022-08-17T12:37:54.080Z,26.51
2022-08-17T12:38:54.079Z,26.56
2022-08-17T12:39:54.086Z,26.54
2022-08-17T12:40:54.020Z,26.54
2022-08-17T12:41:57.381Z,26.53
2022-08-17T12:42:55.011Z,26.51
2022-08-17T12:43:53.993Z,26.49
2022-08-17T12:44:54.086Z,26.44
2022-08-17T12:45:53.982Z,26.41
2022-08-17T12:46:53.976Z,26.39
2022-08-17T12:47:54.022Z,26.36
2022-08-17T12:48:59.657Z,26.32
2022-08-17T12:49:54.953Z,26.28
2022-08-17T12:50:53.950Z,26.21
2022-08-17T12:51:53.944Z,26.16